createdAt,value
2023-03-30T00:01:19.475Z,12.00
2023-03-30T00:03:50.223Z,12.00
2023-03-30T00:06:23.326Z,12.00
2023-03-30T00:08:53.574Z,12.00
2023-03-30T00:11:23.748Z,12.00
2023-03-30T00:13:54.920Z,12.00
2023-03-30T00:16:26.040Z,12.00
2023-03-30T00:18:55.929Z,12.00
2023-03-30T00:21:27.074Z,12.00
2023-03-30T00:23:56.802Z,12.10
2023-03-30T00:26:24.166Z,12.00
2023-03-30T00:28:51.451Z,12.00
2023-03-30T00:31:18.893Z,12.00
2023-03-30T00:33:47.508Z,12.10
2023-03-30T00:36:16.503Z,12.10
2023-03-30T00:38:48.406Z,12.00
2023-03-30T00:41:16.374Z,12.00
2023-03-30T00:44:07.392Z,12.00
2023-03-30T00:46:34.803Z,12.10
2023-03-30T00:49:12.272Z,12.10
2023-03-30T00:51:42.592Z,12.10
2023-03-30T00:54:19.168Z,12.10
2023-03-30T00:56:49.200Z,12.10
2023-03-30T00:59:18.794Z,12.10
2023-03-30T01:01:50.480Z,12.10
2023-03-30T01:04:18.851Z,12.10
2023-03-30T01:06:47.124Z,12.10
2023-03-30T01:09:16.528Z,12.10
2023-03-30T01:11:44.190Z,12.10
2023-03-30T01:14:15.527Z,12.10
2023-03-30T01:17:13.673Z,12.10
2023-03-30T01:19:58.957Z,12.10
2023-03-30T01:23:02.365Z,12.10
2023-03-30T01:25:47.892Z,12.10
2023-03-30T01:28:29.954Z,12.10
2023-03-30T01:31:14.897Z,12.10
2023-03-30T01:33:57.919Z,12.10
2023-03-30T01:36:41.728Z,12.10
2023-03-30T01:39:16.935Z,12.00
2023-03-30T01:41:59.098Z,12.10
2023-03-30T01:44:32.557Z,12.00
2023-03-30T01:47:17.658Z,12.00
2023-03-30T01:50:12.880Z,12.00
2023-03-30T01:52:53.894Z,12.00
2023-03-30T01:55:29.373Z,12.00
2023-03-30T01:58:14.674Z,12.00
2023-03-30T02:00:45.147Z,12.00
2023-03-30T02:03:17.473Z,12.00
2023-03-30T02:05:47.085Z,12.00
2023-03-30T02:08:18.953Z,11.90
2023-03-30T02:10:49.590Z,11.90
2023-03-30T02:13:19.225Z,11.90
2023-03-30T02:15:53.152Z,11.90
2023-03-30T02:18:23.528Z,11.90
2023-03-30T02:20:50.947Z,11.90
2023-03-30T02:23:21.456Z,11.90
2023-03-30T02:25:49.492Z,11.90
2023-03-30T02:28:17.107Z,11.90
2023-03-30T02:30:47.152Z,11.90
2023-03-30T02:33:26.062Z,11.90
2023-03-30T02:35:58.777Z,11.90
2023-03-30T02:38:44.329Z,11.90
2023-03-30T02:41:32.717Z,11.90
2023-03-30T02:43:59.959Z,11.80
2023-03-30T02:46:44.574Z,11.90
2023-03-30T02:49:40.724Z,11.80
2023-03-30T02:52:40.048Z,11.80
2023-03-30T02:55:10.586Z,11.80
2023-03-30T02:57:37.917Z,11.90
2023-03-30T03:00:24.038Z,11.80
2023-03-30T03:03:02.582Z,11.90
2023-03-30T03:05:33.968Z,11.80
2023-03-30T03:08:01.587Z,11.80
2023-03-30T03:10:28.836Z,11.80
2023-03-30T03:12:58.498Z,11.80
2023-03-30T03:15:25.813Z,11.80
2023-03-30T03:17:53.170Z,11.70
2023-03-30T03:20:20.521Z,11.80
2023-03-30T03:22:49.904Z,11.70
2023-03-30T03:25:19.609Z,11.70
2023-03-30T03:27:47.319Z,11.70
2023-03-30T03:30:14.786Z,11.70
2023-03-30T03:32:42.088Z,11.80
2023-03-30T03:35:09.959Z,11.80
2023-03-30T03:37:37.247Z,11.70
2023-03-30T03:40:06.543Z,11.70
2023-03-30T03:42:34.066Z,11.80
2023-03-30T03:45:01.361Z,11.80
2023-03-30T03:47:28.833Z,11.80
2023-03-30T03:49:56.160Z,11.80
2023-03-30T03:52:23.652Z,11.80
2023-03-30T03:54:53.369Z,11.80
2023-03-30T03:57:23.069Z,11.80
2023-03-30T03:59:52.097Z,11.80
2023-03-30T04:02:21.250Z,11.90
2023-03-30T04:04:51.778Z,11.90
2023-03-30T04:07:21.685Z,11.90
2023-03-30T04:09:48.932Z,11.90
2023-03-30T04:12:16.257Z,11.90
2023-03-30T04:14:43.657Z,11.90
2023-03-30T04:17:11.797Z,11.90
2023-03-30T04:19:39.495Z,11.90
2023-03-30T04:22:06.948Z,11.90
2023-03-30T04:24:35.572Z,11.90
2023-03-30T04:27:03.333Z,11.90
2023-03-30T04:29:30.831Z,11.90
2023-03-30T04:32:02.962Z,11.90
2023-03-30T04:34:31.047Z,11.90
2023-03-30T04:37:03.923Z,11.90
2023-03-30T04:39:31.377Z,11.90
2023-03-30T04:41:58.681Z,11.90
2023-03-30T04:44:26.103Z,11.80
2023-03-30T04:46:55.305Z,11.90
2023-03-30T04:49:25.800Z,11.80
2023-03-30T04:51:54.683Z,11.80
2023-03-30T04:54:24.216Z,11.80
2023-03-30T04:56:51.639Z,11.80
2023-03-30T04:59:19.023Z,11.80
2023-03-30T05:01:49.330Z,11.80
2023-03-30T05:04:16.663Z,11.80
2023-03-30T05:06:44.322Z,11.80
2023-03-30T05:09:14.373Z,11.80
2023-03-30T05:11:41.701Z,11.80
2023-03-30T05:14:11.746Z,11.70
2023-03-30T05:16:39.102Z,11.70
2023-03-30T05:19:06.509Z,11.70
2023-03-30T05:21:36.126Z,11.70
2023-03-30T05:24:04.135Z,11.70
2023-03-30T05:26:34.855Z,11.70
2023-03-30T05:29:02.415Z,11.70
2023-03-30T05:31:35.036Z,11.80
2023-03-30T05:34:02.771Z,11.80
2023-03-30T05:36:30.103Z,11.80
2023-03-30T05:38:57.423Z,11.80
2023-03-30T05:41:24.927Z,11.80
2023-03-30T05:43:54.496Z,11.80
2023-03-30T05:46:22.821Z,11.80
2023-03-30T05:48:50.290Z,11.80
2023-03-30T05:51:20.017Z,11.90
2023-03-30T05:53:47.446Z,11.90
2023-03-30T05:56:17.672Z,11.90
2023-03-30T05:58:44.979Z,11.90
2023-03-30T06:01:13.427Z,11.90
2023-03-30T06:03:42.201Z,12.00
2023-03-30T06:06:09.994Z,12.00
2023-03-30T06:08:37.365Z,12.00
2023-03-30T06:11:07.921Z,12.00
2023-03-30T06:13:37.307Z,12.10
2023-03-30T06:16:07.988Z,12.10
2023-03-30T06:18:35.299Z,12.10
2023-03-30T06:21:07.197Z,12.20
2023-03-30T06:23:37.214Z,12.20
2023-03-30T06:26:09.723Z,12.30
2023-03-30T06:28:39.228Z,12.30
2023-03-30T06:31:12.479Z,12.30
2023-03-30T06:33:41.692Z,12.40
2023-03-30T06:36:14.952Z,12.40
2023-03-30T06:38:45.340Z,12.40
2023-03-30T06:41:12.911Z,12.40
2023-03-30T06:43:40.363Z,12.50
2023-03-30T06:46:08.248Z,12.50
2023-03-30T06:48:40.147Z,12.50
2023-03-30T06:51:07.729Z,12.50
2023-03-30T06:53:34.998Z,12.50
2023-03-30T06:56:02.283Z,12.60
2023-03-30T06:58:30.673Z,12.60
2023-03-30T07:00:58.100Z,12.60
2023-03-30T07:03:26.568Z,12.50
2023-03-30T07:05:54.030Z,12.50
2023-03-30T07:08:26.748Z,12.50
2023-03-30T07:10:54.047Z,12.50
2023-03-30T07:13:21.766Z,12.50
2023-03-30T07:15:49.002Z,12.50
2023-03-30T07:18:18.875Z,12.50
2023-03-30T07:20:46.822Z,12.50
2023-03-30T07:23:16.647Z,12.50
2023-03-30T07:25:45.756Z,12.50
2023-03-30T07:28:14.058Z,12.50
2023-03-30T07:30:41.640Z,12.50
2023-03-30T07:33:11.623Z,12.50
2023-03-30T07:35:47.022Z,12.50
2023-03-30T07:38:14.993Z,12.50
2023-03-30T07:40:42.450Z,12.50
2023-03-30T07:43:09.720Z,12.50
2023-03-30T07:45:39.525Z,12.50
2023-03-30T07:48:07.003Z,12.50
2023-03-30T07:50:34.699Z,12.50
2023-03-30T07:53:02.006Z,12.50
2023-03-30T07:55:30.047Z,12.50
2023-03-30T07:57:59.965Z,12.50
2023-03-30T08:00:27.927Z,12.50
2023-03-30T08:02:57.837Z,12.60
2023-03-30T08:05:25.138Z,12.50
2023-03-30T08:07:53.016Z,12.60
2023-03-30T08:10:22.510Z,12.60
2023-03-30T08:12:49.884Z,12.60
2023-03-30T08:15:17.228Z,12.60
2023-03-30T08:17:44.604Z,12.60
2023-03-30T08:20:15.939Z,12.60
2023-03-30T08:22:45.775Z,12.60
2023-03-30T08:25:13.170Z,12.60
2023-03-30T08:27:40.472Z,12.60
2023-03-30T08:30:08.365Z,12.70
2023-03-30T08:32:37.919Z,12.70
2023-03-30T08:35:06.403Z,12.60
2023-03-30T08:37:33.662Z,12.60
2023-03-30T08:40:06.445Z,12.60
2023-03-30T08:42:48.930Z,12.60
2023-03-30T08:45:18.801Z,12.60
2023-03-30T08:47:50.485Z,12.60
2023-03-30T08:50:19.239Z,12.60
2023-03-30T08:52:52.181Z,12.70
2023-03-30T08:55:40.689Z,12.70
2023-03-30T08:58:17.549Z,12.70
2023-03-30T09:01:00.110Z,12.70
2023-03-30T09:03:39.269Z,12.80
2023-03-30T09:06:28.482Z,12.80
2023-03-30T09:08:58.708Z,12.80
2023-03-30T09:11:45.698Z,12.80
2023-03-30T09:14:25.840Z,12.90
2023-03-30T09:17:02.520Z,12.90
2023-03-30T09:19:40.441Z,12.90
2023-03-30T09:22:12.993Z,12.90
2023-03-30T09:24:44.981Z,13.00
2023-03-30T09:27:27.749Z,13.00
2023-03-30T09:29:58.319Z,13.00
2023-03-30T09:32:33.157Z,13.00
2023-03-30T09:35:11.056Z,13.00
2023-03-30T09:37:38.453Z,13.00
2023-03-30T09:40:17.744Z,13.00
2023-03-30T09:43:24.095Z,13.10
2023-03-30T09:45:53.801Z,13.10
2023-03-30T09:48:21.294Z,13.20
2023-03-30T09:50:48.638Z,13.30
2023-03-30T09:53:25.139Z,13.40
2023-03-30T09:56:23.034Z,13.50
2023-03-30T09:58:50.574Z,13.60
2023-03-30T10:01:24.253Z,13.70
2023-03-30T10:04:16.506Z,13.80
2023-03-30T10:06:53.513Z,13.90
2023-03-30T10:09:24.081Z,14.00
2023-03-30T10:11:54.550Z,14.10
2023-03-30T10:14:28.781Z,14.20
2023-03-30T10:16:59.041Z,14.30
2023-03-30T10:19:26.765Z,14.40
2023-03-30T10:22:04.314Z,14.50
2023-03-30T10:24:33.303Z,14.60
2023-03-30T10:27:19.676Z,14.60
2023-03-30T10:29:50.789Z,14.70
2023-03-30T10:32:21.796Z,14.70
2023-03-30T10:34:58.372Z,14.80
2023-03-30T10:37:32.404Z,14.80
2023-03-30T10:40:02.405Z,14.80
2023-03-30T10:42:32.927Z,14.90
2023-03-30T10:45:04.402Z,14.90
2023-03-30T10:47:50.787Z,14.90
2023-03-30T10:50:28.110Z,15.00
2023-03-30T10:53:19.651Z,15.00
2023-03-30T10:56:14.538Z,15.10
2023-03-30T10:59:06.866Z,15.10
2023-03-30T11:01:53.152Z,15.10
2023-03-30T11:04:40.264Z,15.20
2023-03-30T11:07:41.737Z,15.20
2023-03-30T11:10:22.192Z,15.30
2023-03-30T11:13:03.084Z,15.30
2023-03-30T11:15:33.482Z,15.40
2023-03-30T11:18:10.719Z,15.40
2023-03-30T11:20:46.039Z,15.50
2023-03-30T11:23:34.778Z,15.50
2023-03-30T11:26:09.853Z,15.50
2023-03-30T11:28:52.968Z,15.70
2023-03-30T11:31:38.292Z,15.70
2023-03-30T11:34:41.226Z,15.80
2023-03-30T11:37:35.413Z,15.90
2023-03-30T11:40:26.833Z,16.10
2023-03-30T11:42:58.629Z,16.10
2023-03-30T11:45:41.361Z,16.20
2023-03-30T11:48:21.173Z,16.30
2023-03-30T11:51:26.819Z,16.40
2023-03-30T11:54:15.095Z,16.40
2023-03-30T11:56:48.175Z,16.50
2023-03-30T11:59:39.795Z,16.50
2023-03-30T12:02:28.261Z,16.50
2023-03-30T12:05:11.289Z,16.50
2023-03-30T12:08:19.356Z,16.50
2023-03-30T12:10:54.915Z,16.50
2023-03-30T12:13:22.176Z,16.60
2023-03-30T12:16:00.675Z,16.60
2023-03-30T12:18:30.986Z,16.60
2023-03-30T12:21:19.029Z,16.60
2023-03-30T12:24:01.104Z,16.70
2023-03-30T12:26:31.037Z,16.70
2023-03-30T12:31:58.843Z,16.80
2023-03-30T12:34:28.300Z,16.80
2023-03-30T12:37:23.539Z,16.90
2023-03-30T12:40:06.754Z,17.00
2023-03-30T12:42:46.357Z,17.00
2023-03-30T12:45:32.112Z,17.00
2023-03-30T12:48:05.433Z,17.00
2023-03-30T12:50:36.211Z,17.00
2023-03-30T12:53:35.798Z,17.00
2023-03-30T12:56:26.453Z,17.10
2023-03-30T12:59:23.550Z,17.10
2023-03-30T13:02:12.334Z,17.20
2023-03-30T13:04:44.057Z,17.20
2023-03-30T13:07:27.420Z,17.20
2023-03-30T13:09:57.883Z,17.20
2023-03-30T13:12:31.509Z,17.30
2023-03-30T13:15:04.410Z,17.30
2023-03-30T13:17:51.059Z,17.30
2023-03-30T13:20:29.893Z,17.40
2023-03-30T13:23:25.001Z,17.40
2023-03-30T13:26:03.480Z,17.50
2023-03-30T13:28:59.388Z,17.50
2023-03-30T13:31:41.432Z,17.60
2023-03-30T13:34:31.102Z,17.60
2023-03-30T13:37:16.789Z,17.60
2023-03-30T13:39:52.801Z,17.60
2023-03-30T13:42:35.140Z,17.60
2023-03-30T13:45:30.837Z,17.60
2023-03-30T13:48:24.865Z,17.50
2023-03-30T13:51:03.083Z,17.50
2023-03-30T13:53:41.822Z,17.50
2023-03-30T13:56:13.411Z,17.40
2023-03-30T13:58:46.337Z,17.40
2023-03-30T14:01:19.197Z,17.40
2023-03-30T14:03:57.623Z,17.30
2023-03-30T14:06:29.948Z,17.20
2023-03-30T14:09:12.377Z,17.10
2023-03-30T14:11:46.978Z,17.10
2023-03-30T14:14:23.146Z,17.00
2023-03-30T14:16:51.394Z,16.90
2023-03-30T14:19:28.168Z,16.80
2023-03-30T14:22:02.195Z,16.80
2023-03-30T14:24:36.514Z,16.70
2023-03-30T14:27:15.803Z,16.70
2023-03-30T14:29:50.199Z,16.70
2023-03-30T14:32:21.481Z,16.70
2023-03-30T14:34:53.768Z,16.60
2023-03-30T14:37:25.813Z,16.50
2023-03-30T14:39:57.464Z,16.60
2023-03-30T14:42:30.979Z,16.50
2023-03-30T14:44:58.465Z,16.50
2023-03-30T14:47:27.888Z,16.50
2023-03-30T14:50:01.982Z,16.50
2023-03-30T14:52:40.931Z,16.40
2023-03-30T14:55:17.572Z,16.40
2023-03-30T14:57:49.708Z,16.40
2023-03-30T15:00:22.832Z,16.40
2023-03-30T15:02:56.976Z,16.30
2023-03-30T15:05:30.257Z,16.30
2023-03-30T15:07:57.629Z,16.30
2023-03-30T15:10:36.809Z,16.30
2023-03-30T15:13:08.195Z,16.20
2023-03-30T15:15:35.861Z,16.20
2023-03-30T15:18:04.611Z,16.20
2023-03-30T15:20:32.512Z,16.20
2023-03-30T15:23:00.782Z,16.20
2023-03-30T15:25:35.180Z,16.20
2023-03-30T15:28:07.021Z,16.20
2023-03-30T15:30:38.447Z,16.20
2023-03-30T15:33:07.483Z,16.20
2023-03-30T15:35:37.163Z,16.20
2023-03-30T15:38:13.304Z,16.20
2023-03-30T15:40:43.050Z,16.20
2023-03-30T15:43:22.336Z,16.20
2023-03-30T15:46:09.079Z,16.10
2023-03-30T15:48:47.041Z,16.10
2023-03-30T15:51:21.138Z,16.10
2023-03-30T15:53:55.633Z,16.10
2023-03-30T15:56:56.444Z,16.10
2023-03-30T15:59:31.972Z,16.00
2023-03-30T16:02:15.129Z,16.00
2023-03-30T16:04:44.984Z,16.00
2023-03-30T16:07:21.328Z,16.00
2023-03-30T16:09:49.220Z,15.90
2023-03-30T16:12:19.967Z,15.90
2023-03-30T16:14:48.208Z,15.90
2023-03-30T16:17:18.074Z,15.90
2023-03-30T16:19:46.107Z,15.80
2023-03-30T16:22:17.960Z,15.80
2023-03-30T16:24:48.340Z,15.80
2023-03-30T16:27:15.668Z,15.80
2023-03-30T16:29:45.929Z,15.70
2023-03-30T16:32:13.191Z,15.70
2023-03-30T16:34:42.928Z,15.70
2023-03-30T16:37:11.395Z,15.60
2023-03-30T16:39:41.116Z,15.60
2023-03-30T16:42:08.372Z,15.60
2023-03-30T16:44:36.436Z,15.60
2023-03-30T16:47:03.896Z,15.60
2023-03-30T16:49:31.234Z,15.60
2023-03-30T16:51:58.591Z,15.60
2023-03-30T16:54:32.625Z,15.60
2023-03-30T16:57:03.520Z,15.50
2023-03-30T16:59:32.889Z,15.60
2023-03-30T17:02:00.371Z,15.50
2023-03-30T17:04:30.063Z,15.50
2023-03-30T17:06:59.888Z,15.50
2023-03-30T17:09:27.207Z,15.60
2023-03-30T17:11:54.445Z,15.50
2023-03-30T17:14:23.269Z,15.50
2023-03-30T17:16:53.191Z,15.50
2023-03-30T17:19:20.560Z,15.50
2023-03-30T17:21:50.355Z,15.40
2023-03-30T17:24:17.682Z,15.50
2023-03-30T17:26:47.469Z,15.40
2023-03-30T17:29:14.861Z,15.40
2023-03-30T17:31:45.875Z,15.40
2023-03-30T17:34:13.925Z,15.40
2023-03-30T17:36:43.399Z,15.50
2023-03-30T17:39:18.189Z,15.50
2023-03-30T17:41:45.474Z,15.40
2023-03-30T17:44:12.793Z,15.50
2023-03-30T17:46:42.864Z,15.50
2023-03-30T17:49:19.561Z,15.50
2023-03-30T17:51:49.689Z,15.50
2023-03-30T17:54:17.044Z,15.40
2023-03-30T17:56:46.803Z,15.50
2023-03-30T17:59:14.155Z,15.50
2023-03-30T18:01:41.585Z,15.50
2023-03-30T18:04:09.269Z,15.50
2023-03-30T18:06:36.720Z,15.40
2023-03-30T18:09:04.105Z,15.40
2023-03-30T18:11:31.375Z,15.40
2023-03-30T18:13:58.654Z,15.40
2023-03-30T18:16:26.327Z,15.40
2023-03-30T18:18:53.714Z,15.40
2023-03-30T18:21:21.239Z,15.40
2023-03-30T18:23:53.061Z,15.40
2023-03-30T18:26:21.282Z,15.40
2023-03-30T18:28:48.575Z,15.40
2023-03-30T18:31:18.778Z,15.40
2023-03-30T18:33:46.075Z,15.40
2023-03-30T18:36:14.720Z,15.40
2023-03-30T18:38:44.346Z,15.40
2023-03-30T18:41:12.946Z,15.40
2023-03-30T18:43:42.551Z,15.40
2023-03-30T18:46:12.605Z,15.40
2023-03-30T18:48:40.098Z,15.40
2023-03-30T18:51:09.547Z,15.40
2023-03-30T18:53:39.336Z,15.40
2023-03-30T18:56:07.263Z,15.40
2023-03-30T18:58:41.517Z,15.50
2023-03-30T19:01:13.392Z,15.40
2023-03-30T19:03:42.143Z,15.40
2023-03-30T19:06:16.497Z,15.40
2023-03-30T19:08:46.462Z,15.50
2023-03-30T19:11:23.337Z,15.50
2023-03-30T19:13:51.519Z,15.50
2023-03-30T19:16:18.954Z,15.50
2023-03-30T19:18:49.501Z,15.50
2023-03-30T19:21:17.857Z,15.50
2023-03-30T19:23:45.430Z,15.50
2023-03-30T19:26:12.933Z,15.50
2023-03-30T19:28:40.565Z,15.50
2023-03-30T19:31:13.184Z,15.50
2023-03-30T19:33:45.599Z,15.50
2023-03-30T19:36:18.369Z,15.50
2023-03-30T19:38:45.938Z,15.60
2023-03-30T19:41:15.707Z,15.60
2023-03-30T19:43:50.122Z,15.60
2023-03-30T19:46:17.506Z,15.60
2023-03-30T19:48:44.966Z,15.60
2023-03-30T19:51:16.805Z,15.60
2023-03-30T19:53:46.314Z,15.60
2023-03-30T19:56:14.253Z,15.60
2023-03-30T19:58:41.607Z,15.60
2023-03-30T20:01:09.420Z,15.50
2023-03-30T20:03:36.912Z,15.50
2023-03-30T20:06:11.165Z,15.50
2023-03-30T20:08:40.128Z,15.50
2023-03-30T20:11:10.872Z,15.40
2023-03-30T20:13:38.518Z,15.40
2023-03-30T20:16:11.942Z,15.40
2023-03-30T20:18:47.432Z,15.30
2023-03-30T20:21:14.739Z,15.30
2023-03-30T20:23:44.418Z,15.30
2023-03-30T20:26:12.474Z,15.30
2023-03-30T20:28:40.637Z,15.20
2023-03-30T20:31:11.868Z,15.30
2023-03-30T20:33:39.468Z,15.20
2023-03-30T20:36:07.908Z,15.20
2023-03-30T20:38:39.690Z,15.20
2023-03-30T20:41:11.545Z,15.20
2023-03-30T20:43:55.772Z,15.20
2023-03-30T20:46:35.348Z,15.20
2023-03-30T20:49:05.056Z,15.20
2023-03-30T20:51:40.072Z,15.20
2023-03-30T20:54:07.660Z,15.20
2023-03-30T20:56:34.977Z,15.20
2023-03-30T20:59:02.376Z,15.10
2023-03-30T21:01:34.191Z,15.10
2023-03-30T21:04:02.642Z,15.10
2023-03-30T21:06:31.615Z,15.10
2023-03-30T21:09:01.385Z,15.10
2023-03-30T21:11:30.239Z,15.00
2023-03-30T21:14:01.546Z,15.00
2023-03-30T21:16:31.352Z,15.00
2023-03-30T21:18:58.977Z,15.00
2023-03-30T21:21:28.381Z,15.00
2023-03-30T21:23:58.124Z,15.00
2023-03-30T21:26:26.317Z,15.00
2023-03-30T21:28:53.722Z,15.00
2023-03-30T21:31:21.087Z,15.00
2023-03-30T21:33:48.463Z,15.00
2023-03-30T21:36:16.068Z,14.90
2023-03-30T21:38:43.561Z,14.90
2023-03-30T21:41:16.442Z,14.90
2023-03-30T21:43:45.966Z,14.90
2023-03-30T21:46:16.721Z,14.90
2023-03-30T21:48:48.041Z,14.90
2023-03-30T21:51:21.638Z,14.80
2023-03-30T21:53:51.185Z,14.80
2023-03-30T21:56:22.286Z,14.80
2023-03-30T21:58:50.671Z,14.80
2023-03-30T22:01:20.073Z,14.80
2023-03-30T22:03:47.644Z,14.70
2023-03-30T22:06:17.441Z,14.80
2023-03-30T22:08:47.975Z,14.80
2023-03-30T22:11:17.776Z,14.80
2023-03-30T22:13:47.474Z,14.80
2023-03-30T22:16:22.386Z,14.80
2023-03-30T22:18:50.818Z,14.80
2023-03-30T22:21:29.270Z,14.80
2023-03-30T22:24:00.915Z,14.80
2023-03-30T22:26:30.473Z,14.80
2023-03-30T22:29:00.574Z,14.80
2023-03-30T22:31:28.419Z,14.80
2023-03-30T22:33:56.402Z,14.70
2023-03-30T22:36:26.367Z,14.70
2023-03-30T22:38:58.046Z,14.70
2023-03-30T22:41:26.549Z,14.70
2023-03-30T22:43:56.181Z,14.70
2023-03-30T22:46:25.031Z,14.70
2023-03-30T22:48:55.731Z,14.70
2023-03-30T22:51:27.233Z,14.60
2023-03-30T22:53:58.725Z,14.60
2023-03-30T22:56:29.531Z,14.60
2023-03-30T22:58:57.274Z,14.50
2023-03-30T23:01:24.809Z,14.60
2023-03-30T23:03:53.360Z,14.50
2023-03-30T23:06:21.515Z,14.50
2023-03-30T23:08:49.218Z,14.50
2023-03-30T23:11:17.082Z,14.50
2023-03-30T23:13:44.497Z,14.50
2023-03-30T23:16:11.809Z,14.50
2023-03-30T23:18:39.704Z,14.50
2023-03-30T23:21:11.286Z,14.40
2023-03-30T23:23:38.620Z,14.40
2023-03-30T23:26:09.144Z,14.40
2023-03-30T23:28:42.035Z,14.40
2023-03-30T23:31:12.325Z,14.40
2023-03-30T23:33:41.105Z,14.40
2023-03-30T23:36:10.091Z,14.40
2023-03-30T23:38:42.991Z,14.40
2023-03-30T23:41:13.496Z,14.40
2023-03-30T23:43:43.647Z,14.40
2023-03-30T23:46:11.691Z,14.30
2023-03-30T23:48:39.870Z,14.30
2023-03-30T23:51:07.835Z,14.30
2023-03-30T23:53:39.888Z,14.30
2023-03-30T23:56:12.974Z,14.30
2023-03-30T23:58:41.138Z,14.30
